Wednesday, November 22, 2017, 11:32 AM EST
Back to Local

KBDL, Bradley International Airport

Location: Windsor Locks, CT, United States Lat: 41.933
Local Time: 11:32 AM EST (16:32 GMT) Lon: -72.683
Time Zone: US/Eastern Elev: 173 ft

Show me the last for .
Show Decoded

2017-11-22 10:51 METAR KBDL 221551Z 32004KT 6SM -RA BR FEW005 BKN037 OVC060 08/07 A2988 RMK AO2
                 SLP120 P0001 T00780072 =
2017-11-22 09:51 METAR KBDL 221451Z 28005KT 7SM -RA FEW007 SCT015 OVC035 08/07 A2989 RMK AO2
                 SLP122 P0006 60009 T00780067 56005 =
2017-11-22 09:45 METAR KBDL 221445Z 28006KT 6SM -RA BR FEW007 SCT015 OVC034 08/07 A2989 RMK AO2
                 P0006 =
2017-11-22 09:30 METAR KBDL 221430Z 26004KT 5SM -RA BR SCT007 BKN015 OVC032 07/07 A2989 RMK AO2
                 P0004 T00720067 =
2017-11-22 08:51 METAR KBDL 221351Z 28004KT 7SM -RA OVC007 06/06 A2989 RMK AO2 SLP120 P0001
                 T00610056 =
2017-11-22 08:36 METAR KBDL 221336Z 31007KT 6SM -RA BR BKN007 OVC070 06/06 A2988 RMK AO2 P0001
                 T00560056 =
2017-11-22 08:27 METAR KBDL 221327Z 34004KT 6SM -RA BR FEW008 OVC070 06/06 A2988 RMK AO2 P0001
                 T00560056 =
2017-11-22 07:51 METAR KBDL 221251Z 15005KT 6SM -RA BR BKN060 OVC080 07/06 A2990 RMK AO2 RAB1156
                 SLP127 P0002 T00670056 =
2017-11-22 06:51 METAR KBDL 221151Z 00000KT 10SM FEW055 BKN080 BKN110 OVC150 06/04 A2992 RMK AO2
                 SLP132 T00560039 10061 20028 56017 =
2017-11-22 05:51 METAR KBDL 221051Z 00000KT 10SM FEW080 BKN120 OVC180 05/04 A2992 RMK AO2 SLP133
                 T00500039 =
2017-11-22 04:51 METAR KBDL 220951Z 00000KT 10SM SCT110 BKN180 OVC250 04/03 A2995 RMK AO2 SLP144
                 T00390028 =
2017-11-22 03:51 METAR KBDL 220851Z 00000KT 10SM BKN170 BKN210 OVC250 05/03 A2997 RMK AO2 SLP149
                 T00500033 58010 =
2017-11-22 02:51 METAR KBDL 220751Z 00000KT 10SM BKN220 OVC250 04/03 A2999 RMK AO2 SLP156
                 T00440028 =
2017-11-22 01:51 METAR KBDL 220651Z 00000KT 10SM BKN230 BKN250 06/03 A2999 RMK AO2 SLP156
                 T00560033 =
2017-11-22 00:51 METAR KBDL 220551Z 24003KT 10SM BKN250 04/02 A3000 RMK AO2 SLP158 T00390017
                 10094 20039 58007 =
2017-11-21 23:51 METAR KBDL 220451Z 20008KT 10SM SCT250 09/04 A3002 RMK AO2 SLP167 T00890039
                 401441011 =
2017-11-21 22:51 METAR KBDL 220351Z 21008KT 10SM CLR 09/04 A3003 RMK AO2 SLP169 T00890039 =
2017-11-21 21:51 METAR KBDL 220251Z 20010KT 10SM CLR 09/04 A3002 RMK AO2 SLP166 T00890039 51002 =
2017-11-21 20:51 METAR KBDL 220151Z 20010KT 10SM CLR 09/03 A3002 RMK AO2 SLP166 T00890033 =
2017-11-21 19:51 METAR KBDL 220051Z 19009KT 10SM CLR 09/03 A3002 RMK AO2 SLP166 T00890033 =
2017-11-21 18:51 METAR KBDL 212351Z 20010KT 10SM CLR 09/03 A3001 RMK AO2 SLP165 T00940028 10144
                 20094 53006 =
2017-11-21 17:51 METAR KBDL 212251Z 19009KT 10SM FEW200 FEW250 10/03 A2999 RMK AO2 SLP157
                 T01000028 =
2017-11-21 16:51 METAR KBDL 212151Z 18012KT 10SM FEW200 FEW250 11/02 A2999 RMK AO2 SLP155
                 T01060022 =
2017-11-21 15:51 METAR KBDL 212051Z 18014KT 10SM FEW120 FEW250 12/01 A3000 RMK AO2 SLP159
                 T01220011 55002 =
2017-11-21 14:51 METAR KBDL 211951Z 19015G21KT 10SM FEW250 13/01 A2999 RMK AO2 SLP157 T01330006 =
2017-11-21 13:51 METAR KBDL 211851Z 19015KT 10SM BKN250 13/M02 A3000 RMK AO2 SLP159 T01331017 =
2017-11-21 12:51 METAR KBDL 211751Z 19020G25KT 10SM BKN250 14/M01 A3000 RMK AO2 PK WND 19026/1729
                 SLP161 T01391011 10139 21006 56033 =
2017-11-21 11:51 METAR KBDL 211651Z 22016G25KT 10SM BKN250 13/M02 A3003 RMK AO2 SLP171 T01331017
                 =

Support USWX by starting your Amazon purchase here.